sensor_id;sensor_type;location;lat;lon;timestamp;temperature;humidity
28959;DHT22;16066;0.000;0.000;2023-01-01T00:00:10;20.20;46.00
28959;DHT22;16066;0.000;0.000;2023-01-01T00:02:36;20.20;45.80
28959;DHT22;16066;0.000;0.000;2023-01-01T00:05:02;20.20;45.80
28959;DHT22;16066;0.000;0.000;2023-01-01T00:07:28;20.20;45.80
28959;DHT22;16066;0.000;0.000;2023-01-01T00:09:54;20.20;45.80
28959;DHT22;16066;0.000;0.000;2023-01-01T00:12:38;20.20;45.90
28959;DHT22;16066;0.000;0.000;2023-01-01T00:15:04;20.20;45.80
28959;DHT22;16066;0.000;0.000;2023-01-01T00:17:30;20.20;45.80
28959;DHT22;16066;0.000;0.000;2023-01-01T00:19:55;20.20;45.80
28959;DHT22;16066;0.000;0.000;2023-01-01T00:22:21;20.20;45.80
28959;DHT22;16066;0.000;0.000;2023-01-01T00:24:46;20.10;45.70
28959;DHT22;16066;0.000;0.000;2023-01-01T00:27:12;20.10;45.80
28959;DHT22;16066;0.000;0.000;2023-01-01T00:29:37;20.10;45.80
28959;DHT22;16066;0.000;0.000;2023-01-01T00:32:03;20.10;45.80
28959;DHT22;16066;0.000;0.000;2023-01-01T00:34:29;20.10;45.80
28959;DHT22;16066;0.000;0.000;2023-01-01T00:36:56;20.10;45.70
28959;DHT22;16066;0.000;0.000;2023-01-01T00:39:21;20.10;45.70
28959;DHT22;16066;0.000;0.000;2023-01-01T00:41:47;20.10;45.70
28959;DHT22;16066;0.000;0.000;2023-01-01T00:44:12;20.10;46.10
28959;DHT22;16066;0.000;0.000;2023-01-01T00:46:38;20.10;46.00
28959;DHT22;16066;0.000;0.000;2023-01-01T00:49:03;20.10;45.90
28959;DHT22;16066;0.000;0.000;2023-01-01T00:51:29;20.10;45.90
28959;DHT22;16066;0.000;0.000;2023-01-01T00:53:54;20.10;46.30
28959;DHT22;16066;0.000;0.000;2023-01-01T00:56:20;20.10;46.20
28959;DHT22;16066;0.000;0.000;2023-01-01T00:58:45;20.10;46.10
28959;DHT22;16066;0.000;0.000;2023-01-01T01:01:11;20.10;46.20
28959;DHT22;16066;0.000;0.000;2023-01-01T01:03:37;20.10;46.10
28959;DHT22;16066;0.000;0.000;2023-01-01T01:08:31;20.10;46.00
28959;DHT22;16066;0.000;0.000;2023-01-01T01:11:15;20.00;45.90
28959;DHT22;16066;0.000;0.000;2023-01-01T01:13:44;20.10;46.10
28959;DHT22;16066;0.000;0.000;2023-01-01T01:16:15;20.00;46.00
28959;DHT22;16066;0.000;0.000;2023-01-01T01:18:42;20.00;46.20
28959;DHT22;16066;0.000;0.000;2023-01-01T01:21:08;20.10;46.20
28959;DHT22;16066;0.000;0.000;2023-01-01T01:23:34;20.10;46.30
28959;DHT22;16066;0.000;0.000;2023-01-01T01:26:12;20.00;46.10
28959;DHT22;16066;0.000;0.000;2023-01-01T01:28:38;20.00;46.20
28959;DHT22;16066;0.000;0.000;2023-01-01T01:31:03;20.00;46.10
28959;DHT22;16066;0.000;0.000;2023-01-01T01:33:29;20.00;46.10
28959;DHT22;16066;0.000;0.000;2023-01-01T01:35:55;20.00;46.20
28959;DHT22;16066;0.000;0.000;2023-01-01T01:38:20;20.00;46.20
28959;DHT22;16066;0.000;0.000;2023-01-01T01:40:46;20.00;46.00
28959;DHT22;16066;0.000;0.000;2023-01-01T01:43:21;20.00;46.10
28959;DHT22;16066;0.000;0.000;2023-01-01T01:45:47;20.00;46.10
28959;DHT22;16066;0.000;0.000;2023-01-01T01:48:13;20.00;46.20
28959;DHT22;16066;0.000;0.000;2023-01-01T01:50:40;20.00;46.10
28959;DHT22;16066;0.000;0.000;2023-01-01T01:53:14;20.00;46.00
28959;DHT22;16066;0.000;0.000;2023-01-01T01:55:46;20.00;46.00
28959;DHT22;16066;0.000;0.000;2023-01-01T01:58:13;19.90;46.10
28959;DHT22;16066;0.000;0.000;2023-01-01T02:00:40;19.90;46.00
28959;DHT22;16066;0.000;0.000;2023-01-01T02:03:12;19.90;46.30
28959;DHT22;16066;0.000;0.000;2023-01-01T02:05:39;19.90;46.20
28959;DHT22;16066;0.000;0.000;2023-01-01T02:08:06;19.90;46.00
28959;DHT22;16066;0.000;0.000;2023-01-01T02:10:33;19.90;46.10
28959;DHT22;16066;0.000;0.000;2023-01-01T02:12:58;19.90;46.00
28959;DHT22;16066;0.000;0.000;2023-01-01T02:15:28;19.90;46.00
28959;DHT22;16066;0.000;0.000;2023-01-01T02:18:00;19.90;45.70
28959;DHT22;16066;0.000;0.000;2023-01-01T02:20:42;19.90;45.80
28959;DHT22;16066;0.000;0.000;2023-01-01T02:26:40;19.80;45.60
28959;DHT22;16066;0.000;0.000;2023-01-01T02:31:48;19.80;45.70
28959;DHT22;16066;0.000;0.000;2023-01-01T02:34:18;19.70;45.60
28959;DHT22;16066;0.000;0.000;2023-01-01T02:36:50;19.70;45.50
28959;DHT22;16066;0.000;0.000;2023-01-01T02:39:18;19.70;45.60
28959;DHT22;16066;0.000;0.000;2023-01-01T02:41:48;19.70;45.50
28959;DHT22;16066;0.000;0.000;2023-01-01T02:44:15;19.60;45.60
28959;DHT22;16066;0.000;0.000;2023-01-01T02:46:42;19.60;45.60
28959;DHT22;16066;0.000;0.000;2023-01-01T02:49:08;19.60;45.80
28959;DHT22;16066;0.000;0.000;2023-01-01T02:56:50;19.50;45.60
28959;DHT22;16066;0.000;0.000;2023-01-01T02:59:32;19.50;45.60
28959;DHT22;16066;0.000;0.000;2023-01-01T03:02:25;19.50;45.60
28959;DHT22;16066;0.000;0.000;2023-01-01T03:05:02;19.50;45.90
28959;DHT22;16066;0.000;0.000;2023-01-01T03:10:26;19.40;45.80
28959;DHT22;16066;0.000;0.000;2023-01-01T03:13:00;19.40;45.90
28959;DHT22;16066;0.000;0.000;2023-01-01T03:18:25;19.40;45.80
28959;DHT22;16066;0.000;0.000;2023-01-01T03:20:55;19.40;46.00
28959;DHT22;16066;0.000;0.000;2023-01-01T03:23:26;19.30;46.00
28959;DHT22;16066;0.000;0.000;2023-01-01T03:25:56;19.30;46.00
28959;DHT22;16066;0.000;0.000;2023-01-01T03:28:38;19.30;46.60
28959;DHT22;16066;0.000;0.000;2023-01-01T03:31:05;19.30;46.00
28959;DHT22;16066;0.000;0.000;2023-01-01T03:33:46;19.30;45.90
28959;DHT22;16066;0.000;0.000;2023-01-01T03:36:23;19.30;46.00
28959;DHT22;16066;0.000;0.000;2023-01-01T03:39:04;19.20;45.90
28959;DHT22;16066;0.000;0.000;2023-01-01T03:46:41;19.20;46.00
28959;DHT22;16066;0.000;0.000;2023-01-01T03:49:09;19.20;45.90
28959;DHT22;16066;0.000;0.000;2023-01-01T03:51:56;19.20;45.90
28959;DHT22;16066;0.000;0.000;2023-01-01T04:00:07;19.20;46.00
28959;DHT22;16066;0.000;0.000;2023-01-01T04:02:47;19.20;45.90
28959;DHT22;16066;0.000;0.000;2023-01-01T04:05:14;19.10;46.00
28959;DHT22;16066;0.000;0.000;2023-01-01T04:07:41;19.10;45.90
28959;DHT22;16066;0.000;0.000;2023-01-01T04:10:07;19.10;45.90
28959;DHT22;16066;0.000;0.000;2023-01-01T04:15:14;19.10;46.00
28959;DHT22;16066;0.000;0.000;2023-01-01T04:17:40;19.10;46.10
28959;DHT22;16066;0.000;0.000;2023-01-01T04:20:05;19.10;46.10
28959;DHT22;16066;0.000;0.000;2023-01-01T04:22:32;19.10;46.10
28959;DHT22;16066;0.000;0.000;2023-01-01T04:24:57;19.10;46.10
28959;DHT22;16066;0.000;0.000;2023-01-01T04:27:23;19.00;46.20
28959;DHT22;16066;0.000;0.000;2023-01-01T04:29:48;19.00;46.10
28959;DHT22;16066;0.000;0.000;2023-01-01T04:32:14;19.00;46.00
28959;DHT22;16066;0.000;0.000;2023-01-01T04:34:39;19.00;46.10
28959;DHT22;16066;0.000;0.000;2023-01-01T04:37:05;19.00;46.20
28959;DHT22;16066;0.000;0.000;2023-01-01T04:39:30;19.00;46.10
28959;DHT22;16066;0.000;0.000;2023-01-01T04:41:56;19.00;46.20
28959;DHT22;16066;0.000;0.000;2023-01-01T04:44:21;19.00;46.20
28959;DHT22;16066;0.000;0.000;2023-01-01T04:46:47;19.00;46.30
28959;DHT22;16066;0.000;0.000;2023-01-01T04:49:12;19.00;46.20
28959;DHT22;16066;0.000;0.000;2023-01-01T04:51:38;19.00;46.30
28959;DHT22;16066;0.000;0.000;2023-01-01T04:54:03;18.90;46.20
28959;DHT22;16066;0.000;0.000;2023-01-01T04:56:29;18.90;46.20
28959;DHT22;16066;0.000;0.000;2023-01-01T04:58:54;19.00;46.20
28959;DHT22;16066;0.000;0.000;2023-01-01T05:01:30;18.90;46.40
28959;DHT22;16066;0.000;0.000;2023-01-01T05:03:57;18.90;46.30
28959;DHT22;16066;0.000;0.000;2023-01-01T05:06:23;19.00;46.50
28959;DHT22;16066;0.000;0.000;2023-01-01T05:08:51;18.90;46.40
28959;DHT22;16066;0.000;0.000;2023-01-01T05:11:21;18.90;46.40
28959;DHT22;16066;0.000;0.000;2023-01-01T05:13:49;18.90;46.30
28959;DHT22;16066;0.000;0.000;2023-01-01T05:16:18;18.90;46.50
28959;DHT22;16066;0.000;0.000;2023-01-01T05:18:44;18.90;46.60
28959;DHT22;16066;0.000;0.000;2023-01-01T05:21:12;18.90;46.40
28959;DHT22;16066;0.000;0.000;2023-01-01T05:23:38;18.90;46.50
28959;DHT22;16066;0.000;0.000;2023-01-01T05:26:12;18.90;46.40
28959;DHT22;16066;0.000;0.000;2023-01-01T05:28:39;18.90;46.50
28959;DHT22;16066;0.000;0.000;2023-01-01T05:31:13;18.90;46.50
28959;DHT22;16066;0.000;0.000;2023-01-01T05:33:39;18.90;46.50
28959;DHT22;16066;0.000;0.000;2023-01-01T05:36:06;18.90;46.60
28959;DHT22;16066;0.000;0.000;2023-01-01T05:38:33;18.90;46.60
28959;DHT22;16066;0.000;0.000;2023-01-01T05:41:07;18.80;46.50
28959;DHT22;16066;0.000;0.000;2023-01-01T05:43:34;18.90;46.50
28959;DHT22;16066;0.000;0.000;2023-01-01T05:46:07;18.80;46.50
28959;DHT22;16066;0.000;0.000;2023-01-01T05:48:34;18.80;46.60
28959;DHT22;16066;0.000;0.000;2023-01-01T05:51:05;18.80;46.60
28959;DHT22;16066;0.000;0.000;2023-01-01T05:53:31;18.80;46.60
28959;DHT22;16066;0.000;0.000;2023-01-01T05:55:57;18.80;46.60
28959;DHT22;16066;0.000;0.000;2023-01-01T05:58:23;18.80;46.60
28959;DHT22;16066;0.000;0.000;2023-01-01T06:00:49;18.80;46.60
28959;DHT22;16066;0.000;0.000;2023-01-01T06:03:15;18.80;46.60
28959;DHT22;16066;0.000;0.000;2023-01-01T06:05:40;18.80;46.70
28959;DHT22;16066;0.000;0.000;2023-01-01T06:08:06;18.80;46.70
28959;DHT22;16066;0.000;0.000;2023-01-01T06:10:31;18.80;46.70
28959;DHT22;16066;0.000;0.000;2023-01-01T06:12:57;18.80;46.70
28959;DHT22;16066;0.000;0.000;2023-01-01T06:15:24;18.80;46.70
28959;DHT22;16066;0.000;0.000;2023-01-01T06:17:49;18.80;46.70
28959;DHT22;16066;0.000;0.000;2023-01-01T06:20:15;18.80;46.70
28959;DHT22;16066;0.000;0.000;2023-01-01T06:22:41;18.80;46.80
28959;DHT22;16066;0.000;0.000;2023-01-01T06:25:07;18.80;46.80
28959;DHT22;16066;0.000;0.000;2023-01-01T06:27:34;18.80;46.80
28959;DHT22;16066;0.000;0.000;2023-01-01T06:30:00;18.80;46.70
28959;DHT22;16066;0.000;0.000;2023-01-01T06:32:26;18.80;46.70
28959;DHT22;16066;0.000;0.000;2023-01-01T06:34:51;18.80;46.90
28959;DHT22;16066;0.000;0.000;2023-01-01T06:37:17;18.80;46.80
28959;DHT22;16066;0.000;0.000;2023-01-01T06:39:42;18.80;46.90
28959;DHT22;16066;0.000;0.000;2023-01-01T06:42:08;18.80;46.80
28959;DHT22;16066;0.000;0.000;2023-01-01T06:44:33;18.80;46.80
28959;DHT22;16066;0.000;0.000;2023-01-01T06:46:59;18.90;46.90
28959;DHT22;16066;0.000;0.000;2023-01-01T06:49:24;18.80;46.90
28959;DHT22;16066;0.000;0.000;2023-01-01T06:51:50;18.90;47.00
28959;DHT22;16066;0.000;0.000;2023-01-01T06:54:15;18.90;47.00
28959;DHT22;16066;0.000;0.000;2023-01-01T06:56:41;18.90;47.00
28959;DHT22;16066;0.000;0.000;2023-01-01T06:59:06;18.90;47.00
28959;DHT22;16066;0.000;0.000;2023-01-01T07:01:33;19.00;47.10
28959;DHT22;16066;0.000;0.000;2023-01-01T07:04:02;19.00;47.10
28959;DHT22;16066;0.000;0.000;2023-01-01T07:06:30;19.10;47.10
28959;DHT22;16066;0.000;0.000;2023-01-01T07:08:56;19.10;47.10
28959;DHT22;16066;0.000;0.000;2023-01-01T07:11:22;19.20;47.10
28959;DHT22;16066;0.000;0.000;2023-01-01T07:13:48;19.20;47.20
28959;DHT22;16066;0.000;0.000;2023-01-01T07:16:13;19.20;47.00
28959;DHT22;16066;0.000;0.000;2023-01-01T07:18:39;19.30;46.90
28959;DHT22;16066;0.000;0.000;2023-01-01T07:21:06;19.30;47.00
28959;DHT22;16066;0.000;0.000;2023-01-01T07:23:45;19.40;46.90
28959;DHT22;16066;0.000;0.000;2023-01-01T07:26:11;19.40;47.00
28959;DHT22;16066;0.000;0.000;2023-01-01T07:28:36;19.50;47.00
28959;DHT22;16066;0.000;0.000;2023-01-01T07:31:02;19.50;46.80
28959;DHT22;16066;0.000;0.000;2023-01-01T07:33:27;19.50;46.80
28959;DHT22;16066;0.000;0.000;2023-01-01T07:35:53;19.50;46.70
28959;DHT22;16066;0.000;0.000;2023-01-01T07:38:18;19.60;46.80
28959;DHT22;16066;0.000;0.000;2023-01-01T07:40:44;19.60;46.70
28959;DHT22;16066;0.000;0.000;2023-01-01T07:43:10;19.60;46.70
28959;DHT22;16066;0.000;0.000;2023-01-01T07:45:37;19.70;46.70
28959;DHT22;16066;0.000;0.000;2023-01-01T07:48:02;19.70;46.60
28959;DHT22;16066;0.000;0.000;2023-01-01T07:50:30;19.70;46.60
28959;DHT22;16066;0.000;0.000;2023-01-01T07:52:56;19.70;46.50
28959;DHT22;16066;0.000;0.000;2023-01-01T07:55:22;19.70;46.50
28959;DHT22;16066;0.000;0.000;2023-01-01T07:57:48;19.70;46.40
28959;DHT22;16066;0.000;0.000;2023-01-01T08:00:16;19.80;46.40
28959;DHT22;16066;0.000;0.000;2023-01-01T08:02:43;19.80;46.40
28959;DHT22;16066;0.000;0.000;2023-01-01T08:05:08;19.80;46.30
28959;DHT22;16066;0.000;0.000;2023-01-01T08:07:34;19.80;46.40
28959;DHT22;16066;0.000;0.000;2023-01-01T08:09:59;19.80;46.30
28959;DHT22;16066;0.000;0.000;2023-01-01T08:12:25;19.80;46.20
28959;DHT22;16066;0.000;0.000;2023-01-01T08:14:50;19.90;46.30
28959;DHT22;16066;0.000;0.000;2023-01-01T08:17:16;19.90;46.20
28959;DHT22;16066;0.000;0.000;2023-01-01T08:19:42;19.90;46.50
28959;DHT22;16066;0.000;0.000;2023-01-01T08:22:09;19.90;46.70
28959;DHT22;16066;0.000;0.000;2023-01-01T08:24:34;19.90;46.80
28959;DHT22;16066;0.000;0.000;2023-01-01T08:27:00;19.90;46.70
28959;DHT22;16066;0.000;0.000;2023-01-01T08:29:25;19.90;46.60
28959;DHT22;16066;0.000;0.000;2023-01-01T08:31:51;19.90;46.50
28959;DHT22;16066;0.000;0.000;2023-01-01T08:34:16;19.90;46.50
28959;DHT22;16066;0.000;0.000;2023-01-01T08:36:42;19.90;46.40
28959;DHT22;16066;0.000;0.000;2023-01-01T08:39:08;19.80;46.30
28959;DHT22;16066;0.000;0.000;2023-01-01T08:41:34;19.80;46.20
28959;DHT22;16066;0.000;0.000;2023-01-01T08:43:59;19.90;46.20
28959;DHT22;16066;0.000;0.000;2023-01-01T08:46:25;19.80;46.10
28959;DHT22;16066;0.000;0.000;2023-01-01T08:48:50;19.80;46.10
28959;DHT22;16066;0.000;0.000;2023-01-01T08:51:16;19.80;46.00
28959;DHT22;16066;0.000;0.000;2023-01-01T08:53:42;19.80;46.00
28959;DHT22;16066;0.000;0.000;2023-01-01T08:56:09;19.80;46.00
28959;DHT22;16066;0.000;0.000;2023-01-01T08:58:37;19.80;46.00
28959;DHT22;16066;0.000;0.000;2023-01-01T09:01:03;19.80;46.00
28959;DHT22;16066;0.000;0.000;2023-01-01T09:03:29;19.90;46.00
28959;DHT22;16066;0.000;0.000;2023-01-01T09:05:55;19.80;45.90
28959;DHT22;16066;0.000;0.000;2023-01-01T09:08:21;19.80;45.90
28959;DHT22;16066;0.000;0.000;2023-01-01T09:10:47;19.80;45.90
28959;DHT22;16066;0.000;0.000;2023-01-01T09:13:14;19.80;45.90
28959;DHT22;16066;0.000;0.000;2023-01-01T09:15:41;19.80;45.90
28959;DHT22;16066;0.000;0.000;2023-01-01T09:18:10;19.80;46.00
28959;DHT22;16066;0.000;0.000;2023-01-01T09:20:36;19.80;46.00
28959;DHT22;16066;0.000;0.000;2023-01-01T09:23:01;19.80;46.00
28959;DHT22;16066;0.000;0.000;2023-01-01T09:25:27;19.80;46.00
28959;DHT22;16066;0.000;0.000;2023-01-01T09:28:04;19.80;45.90
28959;DHT22;16066;0.000;0.000;2023-01-01T09:30:30;19.90;46.10
28959;DHT22;16066;0.000;0.000;2023-01-01T09:32:55;19.80;46.00
28959;DHT22;16066;0.000;0.000;2023-01-01T09:35:21;19.90;46.10
28959;DHT22;16066;0.000;0.000;2023-01-01T09:37:47;19.90;46.10
28959;DHT22;16066;0.000;0.000;2023-01-01T09:46:02;20.00;46.10
28959;DHT22;16066;0.000;0.000;2023-01-01T09:48:31;20.00;46.10
28959;DHT22;16066;0.000;0.000;2023-01-01T09:50:59;20.00;46.10
28959;DHT22;16066;0.000;0.000;2023-01-01T09:53:36;20.00;46.00
28959;DHT22;16066;0.000;0.000;2023-01-01T09:56:12;20.00;46.00
28959;DHT22;16066;0.000;0.000;2023-01-01T09:58:39;20.10;46.10
28959;DHT22;16066;0.000;0.000;2023-01-01T10:06:17;20.10;46.10
28959;DHT22;16066;0.000;0.000;2023-01-01T10:11:26;20.10;46.00
28959;DHT22;16066;0.000;0.000;2023-01-01T10:13:57;20.10;46.00
28959;DHT22;16066;0.000;0.000;2023-01-01T10:18:52;20.10;46.10
28959;DHT22;16066;0.000;0.000;2023-01-01T10:21:30;20.00;46.00
28959;DHT22;16066;0.000;0.000;2023-01-01T10:24:03;20.00;46.10
28959;DHT22;16066;0.000;0.000;2023-01-01T10:26:31;20.10;46.40
28959;DHT22;16066;0.000;0.000;2023-01-01T10:31:46;20.10;46.50
28959;DHT22;16066;0.000;0.000;2023-01-01T10:34:22;20.20;46.60
28959;DHT22;16066;0.000;0.000;2023-01-01T10:36:54;20.20;46.60
28959;DHT22;16066;0.000;0.000;2023-01-01T10:39:21;20.20;46.50
28959;DHT22;16066;0.000;0.000;2023-01-01T10:41:47;20.20;46.50
28959;DHT22;16066;0.000;0.000;2023-01-01T10:44:15;20.30;46.50
28959;DHT22;16066;0.000;0.000;2023-01-01T10:46:48;20.30;46.50
28959;DHT22;16066;0.000;0.000;2023-01-01T10:49:14;20.30;46.40
28959;DHT22;16066;0.000;0.000;2023-01-01T10:51:51;20.30;46.40
28959;DHT22;16066;0.000;0.000;2023-01-01T10:54:25;20.30;46.40
28959;DHT22;16066;0.000;0.000;2023-01-01T10:56:54;20.30;46.40
28959;DHT22;16066;0.000;0.000;2023-01-01T10:59:38;20.30;46.40
28959;DHT22;16066;0.000;0.000;2023-01-01T11:02:24;20.30;46.40
28959;DHT22;16066;0.000;0.000;2023-01-01T11:04:51;20.30;46.40
28959;DHT22;16066;0.000;0.000;2023-01-01T11:07:27;20.30;46.30
28959;DHT22;16066;0.000;0.000;2023-01-01T11:09:58;20.30;46.40
28959;DHT22;16066;0.000;0.000;2023-01-01T11:12:29;20.30;46.30
28959;DHT22;16066;0.000;0.000;2023-01-01T11:14:56;20.20;46.20
28959;DHT22;16066;0.000;0.000;2023-01-01T11:17:28;20.20;46.20
28959;DHT22;16066;0.000;0.000;2023-01-01T11:19:56;20.20;46.20
28959;DHT22;16066;0.000;0.000;2023-01-01T11:22:45;20.20;46.70
28959;DHT22;16066;0.000;0.000;2023-01-01T11:25:19;20.20;46.40
28959;DHT22;16066;0.000;0.000;2023-01-01T11:27:45;20.20;46.40
28959;DHT22;16066;0.000;0.000;2023-01-01T11:30:26;20.20;46.50
28959;DHT22;16066;0.000;0.000;2023-01-01T11:33:01;20.20;46.60
28959;DHT22;16066;0.000;0.000;2023-01-01T11:35:47;20.20;46.60
28959;DHT22;16066;0.000;0.000;2023-01-01T11:38:18;20.20;46.60
28959;DHT22;16066;0.000;0.000;2023-01-01T11:40:47;20.20;46.80
28959;DHT22;16066;0.000;0.000;2023-01-01T11:43:24;20.20;46.60
28959;DHT22;16066;0.000;0.000;2023-01-01T11:45:51;20.30;46.90
28959;DHT22;16066;0.000;0.000;2023-01-01T11:48:26;20.30;46.70
28959;DHT22;16066;0.000;0.000;2023-01-01T11:50:57;20.30;46.70
28959;DHT22;16066;0.000;0.000;2023-01-01T11:53:36;20.30;46.70
28959;DHT22;16066;0.000;0.000;2023-01-01T11:56:06;20.30;46.60
28959;DHT22;16066;0.000;0.000;2023-01-01T12:01:30;20.30;46.60
28959;DHT22;16066;0.000;0.000;2023-01-01T12:04:11;20.30;46.60
28959;DHT22;16066;0.000;0.000;2023-01-01T12:06:42;20.30;46.60
28959;DHT22;16066;0.000;0.000;2023-01-01T12:09:18;20.30;46.60
28959;DHT22;16066;0.000;0.000;2023-01-01T12:17:32;20.30;46.50
28959;DHT22;16066;0.000;0.000;2023-01-01T12:22:46;20.30;46.40
28959;DHT22;16066;0.000;0.000;2023-01-01T12:25:13;20.30;46.50
28959;DHT22;16066;0.000;0.000;2023-01-01T12:31:18;20.30;46.50
28959;DHT22;16066;0.000;0.000;2023-01-01T12:33:56;20.30;46.60
28959;DHT22;16066;0.000;0.000;2023-01-01T12:39:40;20.30;46.40
28959;DHT22;16066;0.000;0.000;2023-01-01T12:42:46;20.30;46.50
28959;DHT22;16066;0.000;0.000;2023-01-01T12:45:29;20.30;46.50
28959;DHT22;16066;0.000;0.000;2023-01-01T12:50:44;20.40;46.60
28959;DHT22;16066;0.000;0.000;2023-01-01T12:53:29;20.40;46.50
28959;DHT22;16066;0.000;0.000;2023-01-01T12:58:56;20.40;46.70
28959;DHT22;16066;0.000;0.000;2023-01-01T13:01:29;20.50;46.70
28959;DHT22;16066;0.000;0.000;2023-01-01T13:04:08;20.50;46.70
28959;DHT22;16066;0.000;0.000;2023-01-01T13:06:51;20.40;46.70
28959;DHT22;16066;0.000;0.000;2023-01-01T13:09:20;20.40;46.70
28959;DHT22;16066;0.000;0.000;2023-01-01T13:11:48;20.50;46.70
28959;DHT22;16066;0.000;0.000;2023-01-01T13:14:15;20.50;46.70
28959;DHT22;16066;0.000;0.000;2023-01-01T13:16:41;20.50;46.70
28959;DHT22;16066;0.000;0.000;2023-01-01T13:21:48;20.50;46.70
28959;DHT22;16066;0.000;0.000;2023-01-01T13:24:24;20.50;46.70
28959;DHT22;16066;0.000;0.000;2023-01-01T13:26:50;20.50;46.70
28959;DHT22;16066;0.000;0.000;2023-01-01T13:34:42;20.50;46.70
28959;DHT22;16066;0.000;0.000;2023-01-01T13:37:27;20.50;46.70
28959;DHT22;16066;0.000;0.000;2023-01-01T13:40:01;20.50;46.80
28959;DHT22;16066;0.000;0.000;2023-01-01T13:42:40;20.40;46.70
28959;DHT22;16066;0.000;0.000;2023-01-01T13:48:15;20.40;46.60
28959;DHT22;16066;0.000;0.000;2023-01-01T13:51:06;20.40;46.50
28959;DHT22;16066;0.000;0.000;2023-01-01T13:53:51;20.40;46.60
28959;DHT22;16066;0.000;0.000;2023-01-01T14:02:24;20.30;46.40
28959;DHT22;16066;0.000;0.000;2023-01-01T14:07:28;20.30;46.50
28959;DHT22;16066;0.000;0.000;2023-01-01T14:10:23;20.30;46.40
28959;DHT22;16066;0.000;0.000;2023-01-01T14:12:50;20.30;46.40
28959;DHT22;16066;0.000;0.000;2023-01-01T14:15:26;20.30;46.40
28959;DHT22;16066;0.000;0.000;2023-01-01T14:17:53;20.30;46.40
28959;DHT22;16066;0.000;0.000;2023-01-01T14:20:22;20.30;46.40
28959;DHT22;16066;0.000;0.000;2023-01-01T14:22:49;20.30;46.40
28959;DHT22;16066;0.000;0.000;2023-01-01T14:25:25;20.30;46.40
28959;DHT22;16066;0.000;0.000;2023-01-01T14:27:53;20.30;46.40
28959;DHT22;16066;0.000;0.000;2023-01-01T14:30:19;20.30;46.40
28959;DHT22;16066;0.000;0.000;2023-01-01T14:32:45;20.30;46.30
28959;DHT22;16066;0.000;0.000;2023-01-01T14:35:14;20.30;46.40
28959;DHT22;16066;0.000;0.000;2023-01-01T14:37:40;20.30;46.40
28959;DHT22;16066;0.000;0.000;2023-01-01T14:40:07;20.30;46.40
28959;DHT22;16066;0.000;0.000;2023-01-01T14:42:34;20.30;46.40
28959;DHT22;16066;0.000;0.000;2023-01-01T14:45:00;20.30;46.30
28959;DHT22;16066;0.000;0.000;2023-01-01T14:47:32;20.30;46.90
28959;DHT22;16066;0.000;0.000;2023-01-01T14:50:17;20.30;46.30
28959;DHT22;16066;0.000;0.000;2023-01-01T14:52:43;20.30;46.20
28959;DHT22;16066;0.000;0.000;2023-01-01T14:55:15;20.30;46.20
28959;DHT22;16066;0.000;0.000;2023-01-01T14:57:45;20.30;46.20
28959;DHT22;16066;0.000;0.000;2023-01-01T15:00:23;20.30;46.20
28959;DHT22;16066;0.000;0.000;2023-01-01T15:02:49;20.30;46.20
28959;DHT22;16066;0.000;0.000;2023-01-01T15:05:27;20.30;46.20
28959;DHT22;16066;0.000;0.000;2023-01-01T15:08:01;20.30;46.10
28959;DHT22;16066;0.000;0.000;2023-01-01T15:10:29;20.30;46.10
28959;DHT22;16066;0.000;0.000;2023-01-01T15:12:58;20.30;46.10
28959;DHT22;16066;0.000;0.000;2023-01-01T15:15:40;20.30;46.20
28959;DHT22;16066;0.000;0.000;2023-01-01T15:18:39;20.30;46.10
28959;DHT22;16066;0.000;0.000;2023-01-01T15:21:15;20.30;46.10
28959;DHT22;16066;0.000;0.000;2023-01-01T15:24:28;20.30;46.10
28959;DHT22;16066;0.000;0.000;2023-01-01T15:26:55;20.30;46.10
28959;DHT22;16066;0.000;0.000;2023-01-01T15:29:31;20.30;46.20
28959;DHT22;16066;0.000;0.000;2023-01-01T15:32:00;20.30;46.10
28959;DHT22;16066;0.000;0.000;2023-01-01T15:34:41;20.30;46.20
28959;DHT22;16066;0.000;0.000;2023-01-01T15:37:13;20.30;46.20
28959;DHT22;16066;0.000;0.000;2023-01-01T15:42:34;20.30;46.20
28959;DHT22;16066;0.000;0.000;2023-01-01T15:45:29;20.40;46.40
28959;DHT22;16066;0.000;0.000;2023-01-01T15:47:57;20.40;46.50
28959;DHT22;16066;0.000;0.000;2023-01-01T15:53:21;20.40;46.60
28959;DHT22;16066;0.000;0.000;2023-01-01T15:56:00;20.40;46.50
28959;DHT22;16066;0.000;0.000;2023-01-01T15:58:33;20.50;46.60
28959;DHT22;16066;0.000;0.000;2023-01-01T16:01:02;20.50;46.60
28959;DHT22;16066;0.000;0.000;2023-01-01T16:03:29;20.50;46.70
28959;DHT22;16066;0.000;0.000;2023-01-01T16:05:56;20.50;46.70
28959;DHT22;16066;0.000;0.000;2023-01-01T16:08:21;20.50;46.70
28959;DHT22;16066;0.000;0.000;2023-01-01T16:10:48;20.50;46.80
28959;DHT22;16066;0.000;0.000;2023-01-01T16:13:14;20.50;46.80
28959;DHT22;16066;0.000;0.000;2023-01-01T16:18:16;20.50;46.90
28959;DHT22;16066;0.000;0.000;2023-01-01T16:20:42;20.50;46.90
28959;DHT22;16066;0.000;0.000;2023-01-01T16:23:09;20.50;47.00
28959;DHT22;16066;0.000;0.000;2023-01-01T16:25:35;20.50;46.80
28959;DHT22;16066;0.000;0.000;2023-01-01T16:28:00;20.50;46.70
28959;DHT22;16066;0.000;0.000;2023-01-01T16:30:26;20.40;46.60
28959;DHT22;16066;0.000;0.000;2023-01-01T16:32:51;20.40;46.70
28959;DHT22;16066;0.000;0.000;2023-01-01T16:35:17;20.40;46.70
28959;DHT22;16066;0.000;0.000;2023-01-01T16:37:42;20.40;46.70
28959;DHT22;16066;0.000;0.000;2023-01-01T16:40:08;20.40;46.70
28959;DHT22;16066;0.000;0.000;2023-01-01T16:42:34;20.40;46.70
28959;DHT22;16066;0.000;0.000;2023-01-01T16:45:00;20.40;46.70
28959;DHT22;16066;0.000;0.000;2023-01-01T16:47:25;20.40;47.20
28959;DHT22;16066;0.000;0.000;2023-01-01T16:49:51;20.40;46.70
28959;DHT22;16066;0.000;0.000;2023-01-01T16:52:16;20.40;46.70
28959;DHT22;16066;0.000;0.000;2023-01-01T16:54:42;20.40;46.70
28959;DHT22;16066;0.000;0.000;2023-01-01T16:57:07;20.40;46.70
28959;DHT22;16066;0.000;0.000;2023-01-01T16:59:33;20.40;46.70
28959;DHT22;16066;0.000;0.000;2023-01-01T17:01:58;20.40;46.80
28959;DHT22;16066;0.000;0.000;2023-01-01T17:04:24;20.40;46.80
28959;DHT22;16066;0.000;0.000;2023-01-01T17:06:51;20.40;46.70
28959;DHT22;16066;0.000;0.000;2023-01-01T17:09:16;20.40;46.80
28959;DHT22;16066;0.000;0.000;2023-01-01T17:11:42;20.40;46.80
28959;DHT22;16066;0.000;0.000;2023-01-01T17:14:08;20.40;46.80
28959;DHT22;16066;0.000;0.000;2023-01-01T17:16:34;20.40;46.80
28959;DHT22;16066;0.000;0.000;2023-01-01T17:19:00;20.40;46.80
28959;DHT22;16066;0.000;0.000;2023-01-01T17:21:25;20.40;46.80
28959;DHT22;16066;0.000;0.000;2023-01-01T17:23:52;20.40;46.80
28959;DHT22;16066;0.000;0.000;2023-01-01T17:26:19;20.40;46.70
28959;DHT22;16066;0.000;0.000;2023-01-01T17:28:47;20.40;47.40
28959;DHT22;16066;0.000;0.000;2023-01-01T17:31:16;20.40;46.80
28959;DHT22;16066;0.000;0.000;2023-01-01T17:33:42;20.40;46.80
28959;DHT22;16066;0.000;0.000;2023-01-01T17:36:09;20.40;46.80
28959;DHT22;16066;0.000;0.000;2023-01-01T17:38:35;20.40;46.70
28959;DHT22;16066;0.000;0.000;2023-01-01T17:41:06;20.40;46.90